Porto, Portugal
Current Conditions -  °F | °C
As of 11:30 AM on Saturday 01 Nov 2014 (Local Time) from LPPR Reporting Station
Few Clouds Few Clouds  
Wind Chill: 66°   Ceiling: Unl
Heat Index: 66°   Visibility: 6mi
Dew Point: 59°   Wind: 5mph
Humidity: 78%   Direction: 310°NW
Pressure: 30.24"   Gusts: NA
Location:  41.15°N, 8.62°W
Report Text: LPPR 011130Z 31004KT 280V340 9999 FEW020 19/15 Q1024
Loading
Personal Weather Stations






























Interactive Weather Map
Tropical Storm Tracking
New forecast layout! Learn more

10-Day Weather Forecast

Advertisements
Track Severe Weather on mobile